createdAt,value
2019-05-21T00:00:21.113Z,31.15
2019-05-21T00:02:50.135Z,38.60
2019-05-21T00:05:18.796Z,42.33
2019-05-21T00:07:47.516Z,42.90
2019-05-21T00:10:16.328Z,38.48
2019-05-21T00:12:45.008Z,41.85
2019-05-21T00:15:13.885Z,48.92
2019-05-21T00:17:42.563Z,53.60
2019-05-21T00:20:12.936Z,64.65
2019-05-21T00:22:41.897Z,58.45
2019-05-21T00:25:10.653Z,63.87
2019-05-21T00:27:39.352Z,67.55
2019-05-21T00:30:44.064Z,71.35
2019-05-21T00:33:49.034Z,73.05
2019-05-21T00:36:57.787Z,73.30
2019-05-21T00:40:03.039Z,76.92
2019-05-21T00:42:35.705Z,69.58
2019-05-21T00:45:06.329Z,66.67
2019-05-21T00:47:34.997Z,65.50
2019-05-21T00:50:04.235Z,62.90
2019-05-21T00:52:32.907Z,56.68
2019-05-21T00:55:01.615Z,50.45
2019-05-21T00:57:30.279Z,55.00
2019-05-21T00:59:59.292Z,51.28
2019-05-21T01:02:27.983Z,44.45
2019-05-21T01:05:00.653Z,50.03
2019-05-21T01:07:27.155Z,42.35
2019-05-21T01:09:56.117Z,40.17
2019-05-21T01:14:55.985Z,41.00
2019-05-21T01:17:24.646Z,42.85
2019-05-21T01:19:53.301Z,40.35
2019-05-21T01:22:21.986Z,37.63
2019-05-21T01:24:50.676Z,37.38
2019-05-21T01:27:19.342Z,44.90
2019-05-21T01:29:48.013Z,51.77
2019-05-21T01:32:16.703Z,50.23
2019-05-21T01:34:45.371Z,46.30
2019-05-21T01:37:14.079Z,53.05
2019-05-21T01:39:42.742Z,52.23
2019-05-21T01:42:11.414Z,50.23
2019-05-21T01:44:40.098Z,46.75
2019-05-21T01:47:08.767Z,60.33
2019-05-21T01:49:37.454Z,64.80
2019-05-21T01:52:06.156Z,60.20
2019-05-21T01:54:34.847Z,67.25
2019-05-21T01:57:03.656Z,57.48
2019-05-21T01:59:32.331Z,50.75
2019-05-21T02:02:00.995Z,47.15
2019-05-21T02:04:29.710Z,48.15
2019-05-21T02:06:58.442Z,49.95
2019-05-21T02:09:27.171Z,48.33
2019-05-21T02:11:55.845Z,34.67
2019-05-21T02:14:24.619Z,40.05
2019-05-21T02:16:53.543Z,37.75
2019-05-21T02:19:22.212Z,33.67
2019-05-21T02:21:50.965Z,23.90
2019-05-21T02:24:19.638Z,19.70
2019-05-21T02:26:48.304Z,16.42
2019-05-21T02:29:16.968Z,13.15
2019-05-21T02:31:45.647Z,13.40
2019-05-21T02:34:14.308Z,12.03
2019-05-21T02:36:42.973Z,11.00
2019-05-21T02:39:11.666Z,13.50
2019-05-21T02:41:40.328Z,15.50
2019-05-21T02:44:08.997Z,16.52
2019-05-21T02:46:37.675Z,17.92
2019-05-21T02:49:06.350Z,19.73
2019-05-21T02:51:35.031Z,21.77
2019-05-21T02:54:03.701Z,23.42
2019-05-21T02:56:32.381Z,23.95
2019-05-21T02:59:01.065Z,24.55
2019-05-21T03:01:36.055Z,27.27
2019-05-21T03:04:04.830Z,27.30
2019-05-21T03:06:33.582Z,29.25
2019-05-21T03:09:02.243Z,31.82
2019-05-21T03:11:30.933Z,30.80
2019-05-21T03:13:59.716Z,33.58
2019-05-21T03:16:28.381Z,33.25
2019-05-21T03:18:57.068Z,37.48
2019-05-21T03:21:25.769Z,38.25
2019-05-21T03:23:54.429Z,37.10
2019-05-21T03:26:23.095Z,39.75
2019-05-21T03:28:51.799Z,40.48
2019-05-21T03:31:20.466Z,37.45
2019-05-21T03:33:49.143Z,42.60
2019-05-21T03:36:32.560Z,49.88
2019-05-21T03:38:48.445Z,44.05
2019-05-21T03:41:17.125Z,43.35
2019-05-21T03:43:45.999Z,39.50
2019-05-21T03:46:14.725Z,42.38
2019-05-21T03:48:43.386Z,41.83
2019-05-21T03:51:12.087Z,36.30
2019-05-21T03:53:40.746Z,33.55
2019-05-21T03:56:09.428Z,38.58
2019-05-21T03:58:38.094Z,36.73
2019-05-21T04:01:06.776Z,36.35
2019-05-21T04:03:35.626Z,33.25
2019-05-21T04:06:04.492Z,36.70
2019-05-21T04:08:33.160Z,35.10
2019-05-21T04:11:01.822Z,36.00
2019-05-21T04:13:30.489Z,36.30
2019-05-21T04:16:33.375Z,37.75
2019-05-21T04:19:08.658Z,34.05
2019-05-21T04:21:37.337Z,29.55
2019-05-21T04:24:08.629Z,33.42
2019-05-21T04:26:36.421Z,32.42
2019-05-21T04:29:05.253Z,34.85
2019-05-21T04:31:33.924Z,33.45
2019-05-21T04:34:02.639Z,31.15
2019-05-21T04:36:31.298Z,30.60
2019-05-21T04:38:59.980Z,31.23
2019-05-21T04:41:28.646Z,33.18
2019-05-21T04:43:57.386Z,32.48
2019-05-21T04:46:26.050Z,33.38
2019-05-21T04:48:54.730Z,34.30
2019-05-21T04:51:23.399Z,35.70
2019-05-21T04:53:52.059Z,29.23
2019-05-21T04:56:20.746Z,25.68
2019-05-21T04:58:49.397Z,27.70
2019-05-21T05:01:18.089Z,23.73
2019-05-21T05:03:46.764Z,23.80
2019-05-21T05:06:15.437Z,25.25
2019-05-21T05:08:44.122Z,26.87
2019-05-21T05:11:12.814Z,26.85
2019-05-21T05:13:41.494Z,25.82
2019-05-21T05:16:10.184Z,27.65
2019-05-21T05:18:38.875Z,29.27
2019-05-21T05:21:07.634Z,31.52
2019-05-21T05:23:36.301Z,35.75
2019-05-21T05:26:05.246Z,32.83
2019-05-21T05:28:33.919Z,36.93
2019-05-21T05:31:02.607Z,35.75
2019-05-21T05:33:31.291Z,37.25
2019-05-21T05:35:59.980Z,38.40
2019-05-21T05:38:28.681Z,35.98
2019-05-21T05:40:57.375Z,40.08
2019-05-21T05:43:26.041Z,37.25
2019-05-21T05:45:54.718Z,40.10
2019-05-21T05:48:23.674Z,39.78
2019-05-21T05:50:54.409Z,31.42
2019-05-21T05:53:23.085Z,36.42
2019-05-21T05:55:51.770Z,38.88
2019-05-21T05:58:20.439Z,35.70
2019-05-21T06:00:49.192Z,37.70
2019-05-21T06:03:17.902Z,36.73
2019-05-21T06:05:46.572Z,42.93
2019-05-21T06:08:15.312Z,39.80
2019-05-21T06:10:43.968Z,36.33
2019-05-21T06:13:12.632Z,42.95
2019-05-21T06:15:41.327Z,40.73
2019-05-21T06:18:12.478Z,40.20
2019-05-21T06:20:44.478Z,40.17
2019-05-21T06:23:16.521Z,38.88
2019-05-21T06:25:47.461Z,42.88
2019-05-21T06:28:19.460Z,41.33
2019-05-21T06:30:49.559Z,39.53
2019-05-21T06:33:20.934Z,40.43
2019-05-21T06:35:52.461Z,42.43
2019-05-21T06:38:23.539Z,45.05
2019-05-21T06:40:52.650Z,47.62
2019-05-21T06:43:21.321Z,45.78
2019-05-21T06:45:50.143Z,46.92
2019-05-21T06:48:18.798Z,48.28
2019-05-21T06:50:47.482Z,50.15
2019-05-21T06:53:16.164Z,49.40
2019-05-21T06:55:44.858Z,44.35
2019-05-21T06:58:13.556Z,51.33
2019-05-21T07:00:42.253Z,50.52
2019-05-21T07:03:10.907Z,56.70
2019-05-21T07:05:56.104Z,46.80
2019-05-21T07:08:09.994Z,49.80
2019-05-21T07:10:38.662Z,49.20
2019-05-21T07:13:09.842Z,49.58
2019-05-21T07:15:38.595Z,53.17
2019-05-21T07:18:07.304Z,51.60
2019-05-21T07:20:35.985Z,48.33
2019-05-21T07:23:04.931Z,45.55
2019-05-21T07:25:33.801Z,45.80
2019-05-21T07:28:02.463Z,42.00
2019-05-21T07:30:31.156Z,44.38
2019-05-21T07:32:59.910Z,44.33
2019-05-21T07:35:28.685Z,41.95
2019-05-21T07:37:57.375Z,34.45
2019-05-21T07:40:26.031Z,39.67
2019-05-21T07:42:54.694Z,37.73
2019-05-21T07:45:23.407Z,34.30
2019-05-21T07:47:52.045Z,35.48
2019-05-21T07:50:20.709Z,29.80
2019-05-21T07:52:49.398Z,34.05
2019-05-21T07:55:18.200Z,32.83
2019-05-21T07:57:46.909Z,29.32
2019-05-21T08:00:16.275Z,25.80
2019-05-21T08:02:44.958Z,25.68
2019-05-21T08:05:13.776Z,28.55
2019-05-21T08:07:42.450Z,25.20
2019-05-21T08:10:11.298Z,25.90
2019-05-21T08:12:40.183Z,26.80
2019-05-21T08:15:09.703Z,22.70
2019-05-21T08:17:38.415Z,34.20
2019-05-21T08:20:10.224Z,23.22
2019-05-21T08:22:38.727Z,23.47
2019-05-21T08:25:07.666Z,23.12
2019-05-21T08:27:36.342Z,23.20
2019-05-21T08:30:06.109Z,37.30
2019-05-21T08:32:34.769Z,26.02
2019-05-21T08:35:03.527Z,23.77
2019-05-21T08:37:32.234Z,23.42
2019-05-21T08:40:00.978Z,20.00
2019-05-21T08:42:29.645Z,20.75
2019-05-21T08:44:58.302Z,21.52
2019-05-21T08:47:27.042Z,19.55
2019-05-21T08:49:55.727Z,19.12
2019-05-21T08:52:24.396Z,15.43
2019-05-21T08:54:56.093Z,15.63
2019-05-21T08:57:23.567Z,17.42
2019-05-21T08:59:52.502Z,16.23
2019-05-21T09:02:21.166Z,17.70
2019-05-21T09:04:49.923Z,17.15
2019-05-21T09:07:18.804Z,16.48
2019-05-21T09:09:50.583Z,22.40
2019-05-21T09:12:18.066Z,15.38
2019-05-21T09:14:46.835Z,11.63
2019-05-21T09:17:15.579Z,12.07
2019-05-21T09:19:44.260Z,11.63
2019-05-21T09:22:13.024Z,12.00
2019-05-21T09:24:41.715Z,12.43
2019-05-21T09:27:10.381Z,11.93
2019-05-21T09:29:39.056Z,13.22
2019-05-21T09:32:07.804Z,12.00
2019-05-21T09:34:47.963Z,11.55
2019-05-21T09:37:19.274Z,9.90
2019-05-21T09:39:37.512Z,9.80
2019-05-21T09:42:06.169Z,7.08
2019-05-21T09:44:34.901Z,8.10
2019-05-21T09:47:03.648Z,7.12
2019-05-21T09:49:32.389Z,7.00
2019-05-21T09:52:01.051Z,7.28
2019-05-21T09:54:29.726Z,7.00
2019-05-21T09:56:58.813Z,7.80
2019-05-21T09:59:52.497Z,7.28
2019-05-21T10:04:51.883Z,6.95
2019-05-21T10:07:38.037Z,7.70
2019-05-21T10:09:51.005Z,6.92
2019-05-21T10:12:19.672Z,7.30
2019-05-21T10:14:48.326Z,9.20
2019-05-21T10:17:17.130Z,8.93
2019-05-21T10:19:45.791Z,8.28
2019-05-21T10:22:14.538Z,8.20
2019-05-21T10:24:43.202Z,8.95
2019-05-21T10:27:11.879Z,11.03
2019-05-21T10:29:40.538Z,12.03
2019-05-21T10:32:09.514Z,9.75
2019-05-21T10:34:38.234Z,9.40
2019-05-21T10:37:07.038Z,10.63
2019-05-21T10:39:36.041Z,10.98
2019-05-21T10:42:05.068Z,10.95
2019-05-21T10:44:33.810Z,10.78
2019-05-21T10:47:02.481Z,10.85
2019-05-21T10:49:31.166Z,10.80
2019-05-21T10:51:59.863Z,12.05
2019-05-21T10:54:28.631Z,16.30
2019-05-21T10:56:57.293Z,11.53
2019-05-21T10:59:26.047Z,12.78
2019-05-21T11:02:29.178Z,15.85
2019-05-21T11:05:04.673Z,12.07
2019-05-21T11:07:33.473Z,21.17
2019-05-21T11:10:02.466Z,11.45
2019-05-21T11:12:31.360Z,10.05
2019-05-21T11:15:00.008Z,10.63
2019-05-21T11:17:28.686Z,11.12
2019-05-21T11:19:57.360Z,12.33
2019-05-21T11:22:26.117Z,12.07
2019-05-21T11:24:54.785Z,15.13
2019-05-21T11:27:23.620Z,13.50
2019-05-21T11:29:52.293Z,14.30
2019-05-21T11:32:21.029Z,14.50
2019-05-21T11:34:50.473Z,17.50
2019-05-21T11:37:19.396Z,16.57
2019-05-21T11:39:48.051Z,17.57
2019-05-21T11:42:16.709Z,15.75
2019-05-21T11:44:45.413Z,17.50
2019-05-21T11:47:14.076Z,16.73
2019-05-21T11:49:42.743Z,18.45
2019-05-21T11:52:11.898Z,20.30
2019-05-21T11:54:40.569Z,22.07
2019-05-21T11:57:09.235Z,18.42
2019-05-21T11:59:37.910Z,16.97
2019-05-21T12:02:08.812Z,18.90
2019-05-21T12:04:37.487Z,19.27
2019-05-21T12:07:06.219Z,17.65
2019-05-21T12:09:34.970Z,19.67
2019-05-21T12:12:03.660Z,17.45
2019-05-21T12:14:32.334Z,19.10
2019-05-21T12:17:00.993Z,14.68
2019-05-21T12:19:29.676Z,18.75
2019-05-21T12:21:58.347Z,13.15
2019-05-21T12:24:27.685Z,14.07
2019-05-21T12:26:56.567Z,17.35
2019-05-21T12:29:25.317Z,15.32
2019-05-21T12:31:53.967Z,13.43
2019-05-21T12:34:22.705Z,10.82
2019-05-21T12:36:51.407Z,30.60
2019-05-21T12:39:20.149Z,14.68
2019-05-21T12:41:48.800Z,14.83
2019-05-21T12:44:17.518Z,13.28
2019-05-21T12:46:46.262Z,14.30
2019-05-21T12:49:15.090Z,12.65
2019-05-21T12:51:43.971Z,13.50
2019-05-21T12:54:12.659Z,12.58
2019-05-21T12:56:41.444Z,13.22
2019-05-21T12:59:10.076Z,16.35
2019-05-21T13:01:38.727Z,17.32
2019-05-21T13:04:07.413Z,20.12
2019-05-21T13:06:36.079Z,19.25
2019-05-21T13:09:08.195Z,22.42
2019-05-21T13:11:37.165Z,20.40
2019-05-21T13:14:06.305Z,19.17
2019-05-21T13:16:35.285Z,19.35
2019-05-21T13:19:04.299Z,16.45
2019-05-21T13:21:33.046Z,15.48
2019-05-21T13:24:01.727Z,12.03
2019-05-21T13:26:30.431Z,12.85
2019-05-21T13:28:59.178Z,9.45
2019-05-21T13:31:27.924Z,10.30
2019-05-21T13:33:56.613Z,7.58
2019-05-21T13:36:25.290Z,7.60
2019-05-21T13:38:53.947Z,7.25
2019-05-21T13:41:22.699Z,5.80
2019-05-21T13:43:51.361Z,5.40
2019-05-21T13:46:20.096Z,6.20
2019-05-21T13:48:48.772Z,4.45
2019-05-21T13:51:17.483Z,4.40
2019-05-21T13:53:46.197Z,5.20
2019-05-21T13:56:15.210Z,4.78
2019-05-21T13:58:44.228Z,5.15
2019-05-21T14:01:16.109Z,4.45
2019-05-21T14:03:44.935Z,4.40
2019-05-21T14:06:13.628Z,3.55
2019-05-21T14:08:42.419Z,4.12
2019-05-21T14:11:11.530Z,3.55
2019-05-21T14:13:40.285Z,3.33
2019-05-21T14:16:08.966Z,3.58
2019-05-21T14:18:37.625Z,3.50
2019-05-21T14:21:06.310Z,3.80
2019-05-21T14:23:34.983Z,5.30
2019-05-21T14:26:03.852Z,4.70
2019-05-21T14:28:34.563Z,4.30
2019-05-21T14:31:03.391Z,5.00
2019-05-21T14:33:32.102Z,5.25
2019-05-21T14:36:00.786Z,5.90
2019-05-21T14:38:29.661Z,5.03
2019-05-21T14:40:58.424Z,6.03
2019-05-21T14:43:27.255Z,5.70
2019-05-21T14:45:55.925Z,5.62
2019-05-21T14:48:24.628Z,6.15
2019-05-21T14:50:53.288Z,6.25
2019-05-21T14:53:21.998Z,7.25
2019-05-21T14:55:50.674Z,8.15
2019-05-21T14:58:19.344Z,10.05
2019-05-21T15:00:48.209Z,15.25
2019-05-21T15:03:24.898Z,14.13
2019-05-21T15:05:47.379Z,15.60
2019-05-21T15:08:16.086Z,16.80
2019-05-21T15:10:57.492Z,19.25
2019-05-21T15:13:26.143Z,19.52
2019-05-21T15:15:54.820Z,19.73
2019-05-21T15:18:23.678Z,20.62
2019-05-21T15:21:14.752Z,21.05
2019-05-21T15:23:43.940Z,18.82
2019-05-21T15:26:13.198Z,19.50
2019-05-21T15:28:41.927Z,18.73
2019-05-21T15:31:10.591Z,21.68
2019-05-21T15:33:39.290Z,17.57
2019-05-21T15:36:08.028Z,18.70
2019-05-21T15:38:49.231Z,19.02
2019-05-21T15:41:11.920Z,18.82
2019-05-21T15:43:37.512Z,20.70
2019-05-21T15:46:06.250Z,20.08
2019-05-21T15:48:34.910Z,21.40
2019-05-21T15:51:03.663Z,22.27
2019-05-21T15:53:32.341Z,22.25
2019-05-21T15:56:01.015Z,26.23
2019-05-21T15:58:29.792Z,25.97
2019-05-21T16:00:58.607Z,24.65
2019-05-21T16:03:27.282Z,29.10
2019-05-21T16:05:55.961Z,26.95
2019-05-21T16:08:24.636Z,28.10
2019-05-21T16:10:53.403Z,27.73
2019-05-21T16:13:22.088Z,29.15
2019-05-21T16:15:50.776Z,28.62
2019-05-21T16:18:19.457Z,29.82
2019-05-21T16:20:48.122Z,28.27
2019-05-21T16:23:16.887Z,31.17
2019-05-21T16:25:45.545Z,33.18
2019-05-21T16:28:14.286Z,32.03
2019-05-21T16:30:42.964Z,30.00
2019-05-21T16:33:11.654Z,29.25
2019-05-21T16:35:40.333Z,29.07
2019-05-21T16:38:09.006Z,31.97
2019-05-21T16:40:37.775Z,32.05
2019-05-21T16:43:06.426Z,32.58
2019-05-21T16:45:35.153Z,33.83
2019-05-21T16:48:03.851Z,34.70
2019-05-21T16:50:32.545Z,32.53
2019-05-21T16:53:01.210Z,32.98
2019-05-21T16:55:29.947Z,32.80
2019-05-21T16:57:58.713Z,34.27
2019-05-21T17:00:28.571Z,34.48
2019-05-21T17:02:57.315Z,33.85
2019-05-21T17:05:26.084Z,34.58
2019-05-21T17:07:54.765Z,34.35
2019-05-21T17:10:23.440Z,32.55
2019-05-21T17:12:52.406Z,34.08
2019-05-21T17:15:21.264Z,36.30
2019-05-21T17:17:49.934Z,31.90
2019-05-21T17:20:18.769Z,33.63
2019-05-21T17:22:47.431Z,32.38
2019-05-21T17:25:16.442Z,34.20
2019-05-21T17:27:45.160Z,31.93
2019-05-21T17:30:14.277Z,32.88
2019-05-21T17:32:43.079Z,30.97
2019-05-21T17:35:12.382Z,30.77
2019-05-21T17:37:41.034Z,35.15
2019-05-21T17:40:11.867Z,31.80
2019-05-21T17:42:40.537Z,33.18
2019-05-21T17:45:09.854Z,34.50
2019-05-21T17:47:38.624Z,33.28
2019-05-21T17:50:09.233Z,34.13
2019-05-21T17:52:38.397Z,33.55
2019-05-21T17:55:07.893Z,33.85
2019-05-21T17:57:37.743Z,35.15
2019-05-21T18:00:08.013Z,34.08
2019-05-21T18:02:36.966Z,37.60
2019-05-21T18:05:07.378Z,34.95
2019-05-21T18:07:36.939Z,32.50
2019-05-21T18:10:06.785Z,36.25
2019-05-21T18:12:36.284Z,35.92
2019-05-21T18:15:05.874Z,35.85
2019-05-21T18:17:34.780Z,37.58
2019-05-21T18:20:04.429Z,37.42
2019-05-21T18:22:33.112Z,38.67
2019-05-21T18:25:01.865Z,37.45
2019-05-21T18:27:30.918Z,39.80
2019-05-21T18:30:03.194Z,36.68
2019-05-21T18:32:30.089Z,37.03
2019-05-21T18:34:58.814Z,35.00
2019-05-21T18:37:28.070Z,38.17
2019-05-21T18:39:56.767Z,36.40
2019-05-21T18:42:25.484Z,40.95
2019-05-21T18:44:54.224Z,40.28
2019-05-21T18:47:22.978Z,39.70
2019-05-21T18:49:51.746Z,40.43
2019-05-21T18:52:20.505Z,38.73
2019-05-21T18:54:49.553Z,39.45
2019-05-21T18:57:18.252Z,40.25
2019-05-21T18:59:46.939Z,38.53
2019-05-21T19:02:15.606Z,35.20
2019-05-21T19:04:44.295Z,39.23
2019-05-21T19:07:14.009Z,37.53
2019-05-21T19:09:42.842Z,39.95
2019-05-21T19:12:11.647Z,38.53
2019-05-21T19:14:44.757Z,37.63
2019-05-21T19:17:10.781Z,39.45
2019-05-21T19:19:39.445Z,39.70
2019-05-21T19:22:08.370Z,37.08
2019-05-21T19:24:37.052Z,41.30
2019-05-21T19:27:05.792Z,44.00
2019-05-21T19:29:34.560Z,43.55
2019-05-21T19:32:03.680Z,43.23
2019-05-21T19:34:32.353Z,44.95
2019-05-21T19:37:01.039Z,42.93
2019-05-21T19:39:30.333Z,43.50
2019-05-21T19:41:59.002Z,46.50
2019-05-21T19:44:27.968Z,45.75
2019-05-21T19:46:56.658Z,49.13
2019-05-21T19:49:25.346Z,47.50
2019-05-21T19:51:54.057Z,47.83
2019-05-21T19:54:23.854Z,46.83
2019-05-21T19:56:52.540Z,50.73
2019-05-21T19:59:21.575Z,50.20
2019-05-21T20:01:51.170Z,47.30
2019-05-21T20:04:21.969Z,47.73
2019-05-21T20:06:50.818Z,46.13
2019-05-21T20:09:21.324Z,43.20
2019-05-21T20:11:50.093Z,47.70
2019-05-21T20:14:19.436Z,44.70
2019-05-21T20:16:48.729Z,45.12
2019-05-21T20:19:19.466Z,45.20
2019-05-21T20:21:48.355Z,48.08
2019-05-21T20:24:17.900Z,47.83
2019-05-21T20:26:46.875Z,40.12
2019-05-21T20:29:15.960Z,45.43
2019-05-21T20:31:44.719Z,46.18
2019-05-21T20:34:13.469Z,46.77
2019-05-21T20:36:42.417Z,44.27
2019-05-21T20:39:14.634Z,45.55
2019-05-21T20:41:43.418Z,49.00
2019-05-21T20:44:14.391Z,46.20
2019-05-21T20:46:44.064Z,42.78
2019-05-21T20:49:13.386Z,36.65
2019-05-21T20:51:42.410Z,42.10
2019-05-21T20:54:13.290Z,49.80
2019-05-21T20:56:42.493Z,44.80
2019-05-21T20:59:11.469Z,47.40
2019-05-21T21:01:41.901Z,45.48
2019-05-21T21:04:11.214Z,51.48
2019-05-21T21:06:40.728Z,46.92
2019-05-21T21:09:10.293Z,46.92
2019-05-21T21:11:39.669Z,47.83
2019-05-21T21:14:18.144Z,46.02
2019-05-21T21:16:39.918Z,49.30
2019-05-21T21:19:08.597Z,50.45
2019-05-21T21:21:37.413Z,44.80
2019-05-21T21:24:06.584Z,45.85
2019-05-21T21:26:35.650Z,43.35
2019-05-21T21:29:04.574Z,49.80
2019-05-21T21:31:33.392Z,46.33
2019-05-21T21:34:02.074Z,47.35
2019-05-21T21:36:30.837Z,42.50
2019-05-21T21:38:59.675Z,49.08
2019-05-21T21:41:28.702Z,42.48
2019-05-21T21:43:57.377Z,47.33
2019-05-21T21:46:26.350Z,43.87
2019-05-21T21:48:55.408Z,48.95
2019-05-21T21:51:24.692Z,48.45
2019-05-21T21:53:53.554Z,45.70
2019-05-21T21:56:22.673Z,44.13
2019-05-21T21:58:51.498Z,44.90
2019-05-21T22:01:47.137Z,42.48
2019-05-21T22:04:20.280Z,48.80
2019-05-21T22:06:50.161Z,46.10
2019-05-21T22:09:24.482Z,46.30
2019-05-21T22:11:55.102Z,51.13
2019-05-21T22:14:23.973Z,42.75
2019-05-21T22:16:52.661Z,42.50
2019-05-21T22:19:22.631Z,44.93
2019-05-21T22:21:52.166Z,44.75
2019-05-21T22:24:21.503Z,44.48
2019-05-21T22:26:50.641Z,42.78
2019-05-21T22:29:19.620Z,47.78
2019-05-21T22:31:48.382Z,48.13
2019-05-21T22:34:17.068Z,45.00
2019-05-21T22:36:45.835Z,43.95
2019-05-21T22:39:19.347Z,48.33
2019-05-21T22:41:48.015Z,48.33
2019-05-21T22:44:16.692Z,53.48
2019-05-21T22:46:46.147Z,50.80
2019-05-21T22:49:14.837Z,49.75
2019-05-21T22:51:43.591Z,48.95
2019-05-21T22:54:12.374Z,48.95
2019-05-21T22:56:41.033Z,48.25
2019-05-21T22:59:09.701Z,49.35
2019-05-21T23:01:38.401Z,49.03
2019-05-21T23:04:07.249Z,57.08
2019-05-21T23:06:36.409Z,56.60
2019-05-21T23:09:06.677Z,54.38
2019-05-21T23:11:35.405Z,49.95
2019-05-21T23:14:04.384Z,50.70
2019-05-21T23:16:33.441Z,49.90
2019-05-21T23:19:02.288Z,50.83
2019-05-21T23:21:31.141Z,54.23
2019-05-21T23:24:02.227Z,51.83
2019-05-21T23:26:31.050Z,53.05
2019-05-21T23:29:01.405Z,53.83
2019-05-21T23:31:31.182Z,49.55
2019-05-21T23:34:00.294Z,58.33
2019-05-21T23:36:28.971Z,52.60
2019-05-21T23:38:58.979Z,55.08
2019-05-21T23:41:28.622Z,53.60
2019-05-21T23:43:57.361Z,55.78
2019-05-21T23:46:26.639Z,56.02
2019-05-21T23:48:55.381Z,52.58
2019-05-21T23:51:24.057Z,51.08
2019-05-21T23:53:52.722Z,52.50
2019-05-21T23:56:21.581Z,57.50
2019-05-21T23:58:50.358Z,52.83
